Maya — JD2830 — position and weather

sailwx.info

Track history (hours):
 
Tides and Currents Weather Stations Pressure Air Temp Water Temp Dewpoint Dewpoint Depression Visibility Wind Speed Wind Dir Waves Ship Positions

Maya

Last reported at 2017-Sep-23 23:29 UTC. Time now 2017-Sep-23 23:48 UTC.
Position N 34°41' E 135°13'.

Length 90 m; draft 4 m.

Type: Cargo ship. MMSI: 431000776.

Date/timePositionNaut miles runAvg speedWind from/ knotsBaromVisibWave heightAir tempDewpointWater temp
2017-Sep-23 23:29N 34°41' E 135°13'0 0.0
2017-Sep-23 22:59N 34°41' E 135°13'0 0.2
2017-Sep-23 22:30N 34°42' E 135°13'5 9.1
2017-Sep-23 22:00N 34°38' E 135°16'611.2
2017-Sep-23 21:30N 34°35' E 135°10'713.9
2017-Sep-23 21:00N 34°36' E 135°02'714.0
2017-Sep-23 20:30N 34°35' E 134°53'  
2017-Sep-20 11:55N 34°36' E 134°54'614.4
2017-Sep-20 11:30N 34°37' E 135°01'612.8
2017-Sep-20 11:01N 34°36' E 135°08'612.2
2017-Sep-20 10:31N 34°38' E 135°16'2 3.2
2017-Sep-20 09:58N 34°39' E 135°15'0 0.0
2017-Sep-20 09:28N 34°39' E 135°15'0 0.0
2017-Sep-20 08:58N 34°39' E 135°15'0 0.0
2017-Sep-20 08:28N 34°39' E 135°15'0 0.0
2017-Sep-20 07:52N 34°39' E 135°15'0 0.0
2017-Sep-20 07:28N 34°39' E 135°15'0 0.0
2017-Sep-20 06:58N 34°39' E 135°15'0 0.0
2017-Sep-20 06:28N 34°39' E 135°15'1 1.4
2017-Sep-20 06:00N 34°39' E 135°15'2 4.9
2017-Sep-20 05:30N 34°37' E 135°15'0 0.0
2017-Sep-20 04:59N 34°37' E 135°15'0 0.0
2017-Sep-20 04:29N 34°37' E 135°15'0 0.0
2017-Sep-20 03:59N 34°37' E 135°15'0 0.0
2017-Sep-20 03:29N 34°37' E 135°15'0 0.0
2017-Sep-20 02:59N 34°37' E 135°15'0 0.0
2017-Sep-20 02:29N 34°37' E 135°15'1 1.9
2017-Sep-20 02:00N 34°36' E 135°15'611.8
2017-Sep-20 01:30N 34°35' E 135°08'611.3
2017-Sep-20 00:59N 34°37' E 135°01'611.5
2017-Sep-20 00:27N 34°35' E 134°54'3 0.1
2017-Sep-18 04:48N 34°37' E 134°57'410.2
2017-Sep-18 04:27N 34°37' E 135°01'4 8.2
2017-Sep-18 04:00N 34°36' E 135°05'612.1
2017-Sep-18 03:30N 34°37' E 135°13'3 6.2
2017-Sep-18 03:00N 34°39' E 135°14'0 0.0
2017-Sep-18 02:19N 34°39' E 135°14'0 0.0
2017-Sep-18 01:55N 34°39' E 135°14'0 0.0
2017-Sep-18 01:25N 34°39' E 135°14'0 0.0
2017-Sep-18 00:44N 34°39' E 135°14'0 0.0
2017-Sep-18 00:19N 34°39' E 135°14'0 0.0
2017-Sep-17 23:43N 34°39' E 135°14'0 0.0
2017-Sep-17 23:25N 34°39' E 135°14'0 0.4
2017-Sep-17 23:00N 34°39' E 135°15'3 6.4
2017-Sep-17 22:30N 34°36' E 135°16'4 8.7
2017-Sep-17 22:00N 34°35' E 135°11'510.9
2017-Sep-17 21:30N 34°35' E 135°04'4 8.3
2017-Sep-17 21:00N 34°37' E 134°60'5 9.9
2017-Sep-17 20:28N 34°35' E 134°54'  
2017-Sep-15 13:43N 34°35' E 134°52'311.8
2017-Sep-15 13:29N 34°36' E 134°55'611.6
2017-Sep-15 13:00N 34°37' E 135°02'611.5
2017-Sep-15 12:30N 34°36' E 135°08'613.0
2017-Sep-15 12:00N 34°38' E 135°16'2 2.5
2017-Sep-15 11:13N 34°39' E 135°15'0 0.0
2017-Sep-15 10:55N 34°39' E 135°15'0 0.0
2017-Sep-15 10:19N 34°39' E 135°15'0 0.0
2017-Sep-15 10:00N 34°39' E 135°15'4 7.3
2017-Sep-15 09:31N 34°36' E 135°14'612.1
2017-Sep-15 09:00N 34°35' E 135°07'510.6
2017-Sep-15 08:30N 34°37' E 135°01'  
Track history (hours):
 
Tides and Currents Weather Stations Pressure Air Temp Water Temp Dewpoint Dewpoint Depression Visibility Wind Speed Wind Dir Waves Ship Positions

Maya

Last reported at 2017-Sep-23 23:29 UTC. Time now 2017-Sep-23 23:48 UTC.
Position N 34°41' E 135°13'.

Length 90 m; draft 4 m.

Type: Cargo ship. MMSI: 431000776.

Date/timePositionNaut miles runAvg speedWind from/ knotsBaromVisibWave heightAir tempDewpointWater temp
2017-Sep-23 23:29N 34°41' E 135°13'0 0.0
2017-Sep-23 22:59N 34°41' E 135°13'0 0.2
2017-Sep-23 22:30N 34°42' E 135°13'5 9.1
2017-Sep-23 22:00N 34°38' E 135°16'611.2
2017-Sep-23 21:30N 34°35' E 135°10'713.9
2017-Sep-23 21:00N 34°36' E 135°02'714.0
2017-Sep-23 20:30N 34°35' E 134°53'  
2017-Sep-20 11:55N 34°36' E 134°54'614.4
2017-Sep-20 11:30N 34°37' E 135°01'612.8
2017-Sep-20 11:01N 34°36' E 135°08'612.2
2017-Sep-20 10:31N 34°38' E 135°16'2 3.2
2017-Sep-20 09:58N 34°39' E 135°15'0 0.0
2017-Sep-20 09:28N 34°39' E 135°15'0 0.0
2017-Sep-20 08:58N 34°39' E 135°15'0 0.0
2017-Sep-20 08:28N 34°39' E 135°15'0 0.0
2017-Sep-20 07:52N 34°39' E 135°15'0 0.0
2017-Sep-20 07:28N 34°39' E 135°15'0 0.0
2017-Sep-20 06:58N 34°39' E 135°15'0 0.0
2017-Sep-20 06:28N 34°39' E 135°15'1 1.4
2017-Sep-20 06:00N 34°39' E 135°15'2 4.9
2017-Sep-20 05:30N 34°37' E 135°15'0 0.0
2017-Sep-20 04:59N 34°37' E 135°15'0 0.0
2017-Sep-20 04:29N 34°37' E 135°15'0 0.0
2017-Sep-20 03:59N 34°37' E 135°15'0 0.0
2017-Sep-20 03:29N 34°37' E 135°15'0 0.0
2017-Sep-20 02:59N 34°37' E 135°15'0 0.0
2017-Sep-20 02:29N 34°37' E 135°15'1 1.9
2017-Sep-20 02:00N 34°36' E 135°15'611.8
2017-Sep-20 01:30N 34°35' E 135°08'611.3
2017-Sep-20 00:59N 34°37' E 135°01'611.5
2017-Sep-20 00:27N 34°35' E 134°54'3 0.1
2017-Sep-18 04:48N 34°37' E 134°57'410.2
2017-Sep-18 04:27N 34°37' E 135°01'4 8.2
2017-Sep-18 04:00N 34°36' E 135°05'612.1
2017-Sep-18 03:30N 34°37' E 135°13'3 6.2
2017-Sep-18 03:00N 34°39' E 135°14'0 0.0
2017-Sep-18 02:19N 34°39' E 135°14'0 0.0
2017-Sep-18 01:55N 34°39' E 135°14'0 0.0
2017-Sep-18 01:25N 34°39' E 135°14'0 0.0
2017-Sep-18 00:44N 34°39' E 135°14'0 0.0
2017-Sep-18 00:19N 34°39' E 135°14'0 0.0
2017-Sep-17 23:43N 34°39' E 135°14'0 0.0
2017-Sep-17 23:25N 34°39' E 135°14'0 0.4
2017-Sep-17 23:00N 34°39' E 135°15'3 6.4
2017-Sep-17 22:30N 34°36' E 135°16'4 8.7
2017-Sep-17 22:00N 34°35' E 135°11'510.9
2017-Sep-17 21:30N 34°35' E 135°04'4 8.3
2017-Sep-17 21:00N 34°37' E 134°60'5 9.9
2017-Sep-17 20:28N 34°35' E 134°54'  
2017-Sep-15 13:43N 34°35' E 134°52'311.8
2017-Sep-15 13:29N 34°36' E 134°55'611.6
2017-Sep-15 13:00N 34°37' E 135°02'611.5
2017-Sep-15 12:30N 34°36' E 135°08'613.0
2017-Sep-15 12:00N 34°38' E 135°16'2 2.5
2017-Sep-15 11:13N 34°39' E 135°15'0 0.0
2017-Sep-15 10:55N 34°39' E 135°15'0 0.0
2017-Sep-15 10:19N 34°39' E 135°15'0 0.0
2017-Sep-15 10:00N 34°39' E 135°15'4 7.3
2017-Sep-15 09:31N 34°36' E 135°14'612.1
2017-Sep-15 09:00N 34°35' E 135°07'510.6
2017-Sep-15 08:30N 34°37' E 135°01'  

Dump ship's entire track history